Belen Rgnl Information

FAA: BRG - ICAO: KBRG

Belen Rgnl (Airport) Location

State New Mexico
County Valencia
City Belen
Belen Rgnl (Airport) is 3 miles west of Belen, NM.
Latitude 34-38-45.1019N
Longitude 106-50-10.8243W
Elevation 5,199ft

Belen Rgnl METARs

METAR KBRG 262235Z AUTO 33007KT 10SM CLR 07/M07 A3013 RMK AO2 T00651070
Altimeter 30.13"
Temperature 6.5°C (43.7°F)
Wind 330° at 7KT
Clouds Skies are clear.
Visibility 10.0mi
Time observed: 2022-01-26T22:35:00Z

Belen Rgnl (Airport) Details

Status Operational
Activation May 1979
Ownership Public
Usage Public
Chart ALBUQUERQUE
ATC on-site No
Beacon schedule sunset-sunrise
Beacon color clear green

Belen Rgnl (Airport) Contacts

Owner CITY OF BELEN
Owner address 100 S. MAIN STREET, BELEN, NM 87002
Owner phone 505-966-2733
Manager JAMES W. RAY
Manager address 685 TEQUESQUITE LN, ALBERT, NM 87733
Manager phone (505) 795-4837

Belen Rgnl Radio Frequencies

Belen Rgnl (Airport) Radio Frequencies

UNICOM 122.8
Common traffic advisory frequency (CTAF) 122.8